sensor_id;sensor_type;location;lat;lon;timestamp;P1;durP1;ratioP1;P2;durP2;ratioP2
30707;SDS011;17458;48.958;8.284;2022-12-18T00:02:23;50.70;;;29.00;;
30707;SDS011;17458;48.958;8.284;2022-12-18T00:05:07;55.00;;;30.30;;
30707;SDS011;17458;48.958;8.284;2022-12-18T00:07:51;63.53;;;30.67;;
30707;SDS011;17458;48.958;8.284;2022-12-18T00:10:38;62.73;;;32.63;;
30707;SDS011;17458;48.958;8.284;2022-12-18T00:13:22;52.90;;;29.40;;
30707;SDS011;17458;48.958;8.284;2022-12-18T00:16:07;52.20;;;28.03;;
30707;SDS011;17458;48.958;8.284;2022-12-18T00:18:53;62.23;;;32.93;;
30707;SDS011;17458;48.958;8.284;2022-12-18T00:21:42;52.23;;;29.83;;
30707;SDS011;17458;48.958;8.284;2022-12-18T00:24:27;56.20;;;30.07;;
30707;SDS011;17458;48.958;8.284;2022-12-18T00:27:11;54.57;;;29.77;;
30707;SDS011;17458;48.958;8.284;2022-12-18T00:29:55;53.60;;;29.70;;
30707;SDS011;17458;48.958;8.284;2022-12-18T00:32:39;57.23;;;30.83;;
30707;SDS011;17458;48.958;8.284;2022-12-18T00:35:23;70.77;;;33.13;;
30707;SDS011;17458;48.958;8.284;2022-12-18T00:38:07;61.47;;;34.20;;
30707;SDS011;17458;48.958;8.284;2022-12-18T00:40:51;67.47;;;33.77;;
30707;SDS011;17458;48.958;8.284;2022-12-18T00:43:36;80.53;;;33.53;;
30707;SDS011;17458;48.958;8.284;2022-12-18T00:46:20;63.63;;;31.50;;
30707;SDS011;17458;48.958;8.284;2022-12-18T00:49:06;64.80;;;33.43;;
30707;SDS011;17458;48.958;8.284;2022-12-18T00:51:50;62.97;;;32.00;;
30707;SDS011;17458;48.958;8.284;2022-12-18T00:54:34;81.93;;;33.67;;
30707;SDS011;17458;48.958;8.284;2022-12-18T00:57:18;65.07;;;33.13;;
30707;SDS011;17458;48.958;8.284;2022-12-18T01:00:03;64.17;;;34.33;;
30707;SDS011;17458;48.958;8.284;2022-12-18T01:02:49;77.97;;;35.60;;
30707;SDS011;17458;48.958;8.284;2022-12-18T01:05:33;74.97;;;33.40;;
30707;SDS011;17458;48.958;8.284;2022-12-18T01:08:17;63.80;;;33.80;;
30707;SDS011;17458;48.958;8.284;2022-12-18T01:11:06;63.83;;;30.27;;
30707;SDS011;17458;48.958;8.284;2022-12-18T01:14:02;66.03;;;32.40;;
30707;SDS011;17458;48.958;8.284;2022-12-18T01:16:45;71.77;;;34.33;;
30707;SDS011;17458;48.958;8.284;2022-12-18T01:19:29;73.20;;;33.17;;
30707;SDS011;17458;48.958;8.284;2022-12-18T01:22:14;74.97;;;34.63;;
30707;SDS011;17458;48.958;8.284;2022-12-18T01:24:58;73.33;;;36.50;;
30707;SDS011;17458;48.958;8.284;2022-12-18T01:27:42;86.67;;;36.73;;
30707;SDS011;17458;48.958;8.284;2022-12-18T01:30:27;72.53;;;33.60;;
30707;SDS011;17458;48.958;8.284;2022-12-18T01:33:11;86.60;;;34.90;;
30707;SDS011;17458;48.958;8.284;2022-12-18T01:35:55;67.73;;;32.93;;
30707;SDS011;17458;48.958;8.284;2022-12-18T01:38:39;72.73;;;35.53;;
30707;SDS011;17458;48.958;8.284;2022-12-18T01:41:24;75.30;;;36.03;;
30707;SDS011;17458;48.958;8.284;2022-12-18T01:44:51;64.40;;;30.90;;
30707;SDS011;17458;48.958;8.284;2022-12-18T01:47:44;51.53;;;30.00;;
30707;SDS011;17458;48.958;8.284;2022-12-18T01:50:32;62.03;;;29.30;;
30707;SDS011;17458;48.958;8.284;2022-12-18T01:53:21;72.00;;;35.60;;
30707;SDS011;17458;48.958;8.284;2022-12-18T01:56:07;61.03;;;31.20;;
30707;SDS011;17458;48.958;8.284;2022-12-18T01:59:00;70.90;;;32.17;;
30707;SDS011;17458;48.958;8.284;2022-12-18T02:01:48;59.50;;;29.27;;
30707;SDS011;17458;48.958;8.284;2022-12-18T02:04:33;57.93;;;31.03;;
30707;SDS011;17458;48.958;8.284;2022-12-18T02:10:54;66.07;;;31.90;;
30707;SDS011;17458;48.958;8.284;2022-12-18T02:16:40;55.37;;;29.63;;
30707;SDS011;17458;48.958;8.284;2022-12-18T02:19:37;61.73;;;28.77;;
30707;SDS011;17458;48.958;8.284;2022-12-18T02:31:55;67.87;;;29.33;;
30707;SDS011;17458;48.958;8.284;2022-12-18T02:34:41;56.97;;;29.63;;
30707;SDS011;17458;48.958;8.284;2022-12-18T02:37:33;55.03;;;29.17;;
30707;SDS011;17458;48.958;8.284;2022-12-18T02:40:23;59.13;;;27.73;;
30707;SDS011;17458;48.958;8.284;2022-12-18T02:43:10;55.47;;;27.10;;
30707;SDS011;17458;48.958;8.284;2022-12-18T02:45:57;62.57;;;31.73;;
30707;SDS011;17458;48.958;8.284;2022-12-18T02:48:46;60.90;;;27.73;;
30707;SDS011;17458;48.958;8.284;2022-12-18T02:55:00;60.07;;;28.07;;
30707;SDS011;17458;48.958;8.284;2022-12-18T02:58:18;52.83;;;29.23;;
30707;SDS011;17458;48.958;8.284;2022-12-18T03:04:17;55.63;;;29.90;;
30707;SDS011;17458;48.958;8.284;2022-12-18T03:07:09;53.70;;;28.37;;
30707;SDS011;17458;48.958;8.284;2022-12-18T03:09:59;51.23;;;29.70;;
30707;SDS011;17458;48.958;8.284;2022-12-18T03:12:47;61.90;;;29.77;;
30707;SDS011;17458;48.958;8.284;2022-12-18T03:15:44;62.50;;;30.57;;
30707;SDS011;17458;48.958;8.284;2022-12-18T03:18:36;52.93;;;26.93;;
30707;SDS011;17458;48.958;8.284;2022-12-18T03:21:27;49.43;;;27.00;;
30707;SDS011;17458;48.958;8.284;2022-12-18T03:24:17;45.30;;;24.70;;
30707;SDS011;17458;48.958;8.284;2022-12-18T03:27:05;50.33;;;26.47;;
30707;SDS011;17458;48.958;8.284;2022-12-18T03:30:05;54.70;;;29.50;;
30707;SDS011;17458;48.958;8.284;2022-12-18T03:33:02;49.40;;;27.53;;
30707;SDS011;17458;48.958;8.284;2022-12-18T03:35:53;47.67;;;26.57;;
30707;SDS011;17458;48.958;8.284;2022-12-18T03:38:38;51.90;;;27.13;;
30707;SDS011;17458;48.958;8.284;2022-12-18T03:47:43;56.63;;;26.50;;
30707;SDS011;17458;48.958;8.284;2022-12-18T03:50:45;47.23;;;25.43;;
30707;SDS011;17458;48.958;8.284;2022-12-18T03:53:43;46.33;;;26.93;;
30707;SDS011;17458;48.958;8.284;2022-12-18T03:56:42;51.53;;;26.37;;
30707;SDS011;17458;48.958;8.284;2022-12-18T03:59:30;60.43;;;28.20;;
30707;SDS011;17458;48.958;8.284;2022-12-18T04:02:16;52.67;;;28.07;;
30707;SDS011;17458;48.958;8.284;2022-12-18T04:05:04;52.73;;;25.50;;
30707;SDS011;17458;48.958;8.284;2022-12-18T04:07:53;51.80;;;27.47;;
30707;SDS011;17458;48.958;8.284;2022-12-18T04:10:39;60.77;;;28.37;;
30707;SDS011;17458;48.958;8.284;2022-12-18T04:13:24;53.70;;;27.07;;
30707;SDS011;17458;48.958;8.284;2022-12-18T04:16:13;54.23;;;26.50;;
30707;SDS011;17458;48.958;8.284;2022-12-18T04:19:00;53.47;;;28.93;;
30707;SDS011;17458;48.958;8.284;2022-12-18T04:21:47;51.03;;;26.77;;
30707;SDS011;17458;48.958;8.284;2022-12-18T04:24:31;59.10;;;26.37;;
30707;SDS011;17458;48.958;8.284;2022-12-18T04:27:32;53.67;;;29.17;;
30707;SDS011;17458;48.958;8.284;2022-12-18T04:30:17;55.93;;;27.00;;
30707;SDS011;17458;48.958;8.284;2022-12-18T04:33:01;57.07;;;29.67;;
30707;SDS011;17458;48.958;8.284;2022-12-18T04:35:48;48.97;;;28.07;;
30707;SDS011;17458;48.958;8.284;2022-12-18T04:38:33;54.93;;;27.57;;
30707;SDS011;17458;48.958;8.284;2022-12-18T04:41:24;54.77;;;27.70;;
30707;SDS011;17458;48.958;8.284;2022-12-18T04:44:10;54.87;;;27.23;;
30707;SDS011;17458;48.958;8.284;2022-12-18T04:46:54;54.37;;;28.90;;
30707;SDS011;17458;48.958;8.284;2022-12-18T04:49:39;64.60;;;26.93;;
30707;SDS011;17458;48.958;8.284;2022-12-18T04:52:23;58.90;;;27.77;;
30707;SDS011;17458;48.958;8.284;2022-12-18T04:55:07;54.27;;;28.40;;
30707;SDS011;17458;48.958;8.284;2022-12-18T04:57:51;69.37;;;29.43;;
30707;SDS011;17458;48.958;8.284;2022-12-18T05:00:35;60.93;;;30.73;;
30707;SDS011;17458;48.958;8.284;2022-12-18T05:03:19;58.20;;;29.60;;
30707;SDS011;17458;48.958;8.284;2022-12-18T05:06:03;63.00;;;29.77;;
30707;SDS011;17458;48.958;8.284;2022-12-18T05:08:48;68.30;;;29.80;;
30707;SDS011;17458;48.958;8.284;2022-12-18T05:11:32;56.77;;;26.40;;
30707;SDS011;17458;48.958;8.284;2022-12-18T05:14:16;51.67;;;27.20;;
30707;SDS011;17458;48.958;8.284;2022-12-18T05:17:00;60.47;;;27.27;;
30707;SDS011;17458;48.958;8.284;2022-12-18T05:19:43;61.87;;;28.77;;
30707;SDS011;17458;48.958;8.284;2022-12-18T05:22:27;54.47;;;28.27;;
30707;SDS011;17458;48.958;8.284;2022-12-18T05:25:11;57.87;;;27.53;;
30707;SDS011;17458;48.958;8.284;2022-12-18T05:27:55;56.60;;;29.43;;
30707;SDS011;17458;48.958;8.284;2022-12-18T05:30:42;51.10;;;27.40;;
30707;SDS011;17458;48.958;8.284;2022-12-18T05:33:29;50.53;;;28.43;;
30707;SDS011;17458;48.958;8.284;2022-12-18T05:36:16;62.53;;;27.77;;
30707;SDS011;17458;48.958;8.284;2022-12-18T05:39:03;70.27;;;28.33;;
30707;SDS011;17458;48.958;8.284;2022-12-18T05:41:48;58.67;;;30.37;;
30707;SDS011;17458;48.958;8.284;2022-12-18T05:44:32;55.83;;;27.67;;
30707;SDS011;17458;48.958;8.284;2022-12-18T05:47:16;66.27;;;29.60;;
30707;SDS011;17458;48.958;8.284;2022-12-18T05:49:59;53.93;;;28.73;;
30707;SDS011;17458;48.958;8.284;2022-12-18T05:52:43;54.10;;;29.07;;
30707;SDS011;17458;48.958;8.284;2022-12-18T05:55:34;57.20;;;28.17;;
30707;SDS011;17458;48.958;8.284;2022-12-18T05:58:18;57.33;;;29.50;;
30707;SDS011;17458;48.958;8.284;2022-12-18T06:01:10;74.57;;;30.97;;
30707;SDS011;17458;48.958;8.284;2022-12-18T06:03:55;68.93;;;31.73;;
30707;SDS011;17458;48.958;8.284;2022-12-18T06:06:39;54.93;;;27.77;;
30707;SDS011;17458;48.958;8.284;2022-12-18T06:09:22;63.60;;;28.63;;
30707;SDS011;17458;48.958;8.284;2022-12-18T06:12:06;59.30;;;29.43;;
30707;SDS011;17458;48.958;8.284;2022-12-18T06:14:50;74.80;;;34.57;;
30707;SDS011;17458;48.958;8.284;2022-12-18T06:17:34;58.57;;;30.20;;
30707;SDS011;17458;48.958;8.284;2022-12-18T06:20:19;63.63;;;30.60;;
30707;SDS011;17458;48.958;8.284;2022-12-18T06:23:03;61.13;;;29.17;;
30707;SDS011;17458;48.958;8.284;2022-12-18T06:25:47;78.37;;;33.03;;
30707;SDS011;17458;48.958;8.284;2022-12-18T06:28:31;59.80;;;29.57;;
30707;SDS011;17458;48.958;8.284;2022-12-18T06:31:15;66.97;;;30.23;;
30707;SDS011;17458;48.958;8.284;2022-12-18T06:34:01;74.17;;;33.73;;
30707;SDS011;17458;48.958;8.284;2022-12-18T06:36:46;60.17;;;30.17;;
30707;SDS011;17458;48.958;8.284;2022-12-18T06:39:30;65.77;;;29.33;;
30707;SDS011;17458;48.958;8.284;2022-12-18T06:42:14;76.47;;;32.10;;
30707;SDS011;17458;48.958;8.284;2022-12-18T06:44:58;66.10;;;30.87;;
30707;SDS011;17458;48.958;8.284;2022-12-18T06:47:42;76.57;;;34.83;;
30707;SDS011;17458;48.958;8.284;2022-12-18T06:50:27;83.63;;;32.30;;
30707;SDS011;17458;48.958;8.284;2022-12-18T06:53:11;83.97;;;32.90;;
30707;SDS011;17458;48.958;8.284;2022-12-18T06:56:02;69.63;;;31.13;;
30707;SDS011;17458;48.958;8.284;2022-12-18T06:58:51;67.20;;;31.50;;
30707;SDS011;17458;48.958;8.284;2022-12-18T07:01:35;71.80;;;32.50;;
30707;SDS011;17458;48.958;8.284;2022-12-18T07:04:19;78.67;;;36.30;;
30707;SDS011;17458;48.958;8.284;2022-12-18T07:07:03;66.47;;;30.50;;
30707;SDS011;17458;48.958;8.284;2022-12-18T07:09:48;68.73;;;31.97;;
30707;SDS011;17458;48.958;8.284;2022-12-18T07:12:33;72.60;;;32.70;;
30707;SDS011;17458;48.958;8.284;2022-12-18T07:15:17;64.37;;;31.63;;
30707;SDS011;17458;48.958;8.284;2022-12-18T07:18:01;64.90;;;31.87;;
30707;SDS011;17458;48.958;8.284;2022-12-18T07:20:45;67.13;;;30.93;;
30707;SDS011;17458;48.958;8.284;2022-12-18T07:23:29;61.57;;;30.93;;
30707;SDS011;17458;48.958;8.284;2022-12-18T07:26:16;63.50;;;30.97;;
30707;SDS011;17458;48.958;8.284;2022-12-18T07:29:01;75.40;;;33.70;;
30707;SDS011;17458;48.958;8.284;2022-12-18T07:31:45;66.73;;;28.73;;
30707;SDS011;17458;48.958;8.284;2022-12-18T07:34:29;63.93;;;29.33;;
30707;SDS011;17458;48.958;8.284;2022-12-18T07:37:13;60.43;;;28.90;;
30707;SDS011;17458;48.958;8.284;2022-12-18T07:39:58;72.50;;;32.13;;
30707;SDS011;17458;48.958;8.284;2022-12-18T07:42:42;75.17;;;32.70;;
30707;SDS011;17458;48.958;8.284;2022-12-18T07:45:27;64.83;;;29.67;;
30707;SDS011;17458;48.958;8.284;2022-12-18T07:48:10;68.37;;;32.57;;
30707;SDS011;17458;48.958;8.284;2022-12-18T07:50:58;72.13;;;30.87;;
30707;SDS011;17458;48.958;8.284;2022-12-18T07:53:43;75.13;;;31.90;;
30707;SDS011;17458;48.958;8.284;2022-12-18T07:56:27;78.07;;;32.97;;
30707;SDS011;17458;48.958;8.284;2022-12-18T07:59:11;66.93;;;30.43;;
30707;SDS011;17458;48.958;8.284;2022-12-18T08:01:54;74.13;;;33.17;;
30707;SDS011;17458;48.958;8.284;2022-12-18T08:04:38;68.63;;;33.70;;
30707;SDS011;17458;48.958;8.284;2022-12-18T08:07:22;69.00;;;30.73;;
30707;SDS011;17458;48.958;8.284;2022-12-18T08:10:06;79.93;;;33.30;;
30707;SDS011;17458;48.958;8.284;2022-12-18T08:12:53;68.73;;;31.40;;
30707;SDS011;17458;48.958;8.284;2022-12-18T08:15:37;66.33;;;31.57;;
30707;SDS011;17458;48.958;8.284;2022-12-18T08:18:21;68.73;;;31.80;;
30707;SDS011;17458;48.958;8.284;2022-12-18T08:21:09;94.13;;;35.23;;
30707;SDS011;17458;48.958;8.284;2022-12-18T08:23:55;79.00;;;32.67;;
30707;SDS011;17458;48.958;8.284;2022-12-18T08:26:40;64.43;;;31.10;;
30707;SDS011;17458;48.958;8.284;2022-12-18T08:29:24;73.97;;;33.70;;
30707;SDS011;17458;48.958;8.284;2022-12-18T08:32:08;69.93;;;32.53;;
30707;SDS011;17458;48.958;8.284;2022-12-18T08:34:52;59.27;;;28.57;;
30707;SDS011;17458;48.958;8.284;2022-12-18T08:37:37;77.40;;;33.90;;
30707;SDS011;17458;48.958;8.284;2022-12-18T08:40:21;71.10;;;32.13;;
30707;SDS011;17458;48.958;8.284;2022-12-18T08:43:05;84.60;;;35.70;;
30707;SDS011;17458;48.958;8.284;2022-12-18T08:46:18;68.77;;;30.93;;
30707;SDS011;17458;48.958;8.284;2022-12-18T08:49:03;77.00;;;33.73;;
30707;SDS011;17458;48.958;8.284;2022-12-18T08:51:48;78.47;;;32.60;;
30707;SDS011;17458;48.958;8.284;2022-12-18T08:54:41;70.47;;;31.07;;
30707;SDS011;17458;48.958;8.284;2022-12-18T08:57:25;64.17;;;30.23;;
30707;SDS011;17458;48.958;8.284;2022-12-18T09:00:09;76.10;;;32.23;;
30707;SDS011;17458;48.958;8.284;2022-12-18T09:02:54;91.87;;;35.67;;
30707;SDS011;17458;48.958;8.284;2022-12-18T09:05:38;79.17;;;35.53;;
30707;SDS011;17458;48.958;8.284;2022-12-18T09:08:22;76.83;;;32.83;;
30707;SDS011;17458;48.958;8.284;2022-12-18T09:11:10;66.77;;;33.03;;
30707;SDS011;17458;48.958;8.284;2022-12-18T09:13:57;66.00;;;31.17;;
30707;SDS011;17458;48.958;8.284;2022-12-18T09:16:43;70.43;;;30.33;;
30707;SDS011;17458;48.958;8.284;2022-12-18T09:19:27;67.77;;;30.33;;
30707;SDS011;17458;48.958;8.284;2022-12-18T09:22:11;67.63;;;32.13;;
30707;SDS011;17458;48.958;8.284;2022-12-18T09:25:01;80.30;;;33.00;;
30707;SDS011;17458;48.958;8.284;2022-12-18T09:27:46;57.03;;;30.63;;
30707;SDS011;17458;48.958;8.284;2022-12-18T09:30:31;77.13;;;31.77;;
30707;SDS011;17458;48.958;8.284;2022-12-18T09:33:17;77.17;;;28.73;;
30707;SDS011;17458;48.958;8.284;2022-12-18T09:36:02;71.17;;;33.07;;
30707;SDS011;17458;48.958;8.284;2022-12-18T09:38:47;70.87;;;30.40;;
30707;SDS011;17458;48.958;8.284;2022-12-18T09:41:38;80.33;;;33.77;;
30707;SDS011;17458;48.958;8.284;2022-12-18T09:47:24;78.27;;;33.00;;
30707;SDS011;17458;48.958;8.284;2022-12-18T09:50:29;67.77;;;29.77;;
30707;SDS011;17458;48.958;8.284;2022-12-18T09:53:22;62.47;;;31.37;;
30707;SDS011;17458;48.958;8.284;2022-12-18T09:56:12;77.53;;;31.90;;
30707;SDS011;17458;48.958;8.284;2022-12-18T09:59:01;71.07;;;31.70;;
30707;SDS011;17458;48.958;8.284;2022-12-18T10:01:47;65.03;;;31.37;;
30707;SDS011;17458;48.958;8.284;2022-12-18T10:04:31;79.07;;;32.07;;
30707;SDS011;17458;48.958;8.284;2022-12-18T10:07:21;70.93;;;31.87;;
30707;SDS011;17458;48.958;8.284;2022-12-18T10:10:38;79.73;;;32.30;;
30707;SDS011;17458;48.958;8.284;2022-12-18T10:16:29;66.60;;;31.80;;
30707;SDS011;17458;48.958;8.284;2022-12-18T10:23:26;67.93;;;31.83;;
30707;SDS011;17458;48.958;8.284;2022-12-18T10:26:10;76.70;;;32.87;;
30707;SDS011;17458;48.958;8.284;2022-12-18T10:28:55;65.87;;;28.27;;
30707;SDS011;17458;48.958;8.284;2022-12-18T10:31:42;63.13;;;29.60;;
30707;SDS011;17458;48.958;8.284;2022-12-18T10:34:26;62.10;;;28.47;;
30707;SDS011;17458;48.958;8.284;2022-12-18T10:37:11;59.87;;;29.93;;
30707;SDS011;17458;48.958;8.284;2022-12-18T10:43:05;63.77;;;30.00;;
30707;SDS011;17458;48.958;8.284;2022-12-18T10:51:33;73.37;;;34.13;;
30707;SDS011;17458;48.958;8.284;2022-12-18T10:54:22;76.73;;;34.17;;
30707;SDS011;17458;48.958;8.284;2022-12-18T10:57:17;75.73;;;34.67;;
30707;SDS011;17458;48.958;8.284;2022-12-18T11:00:22;71.00;;;33.07;;
30707;SDS011;17458;48.958;8.284;2022-12-18T11:03:28;73.87;;;35.43;;
30707;SDS011;17458;48.958;8.284;2022-12-18T11:06:19;74.00;;;32.20;;
30707;SDS011;17458;48.958;8.284;2022-12-18T11:09:19;75.97;;;35.53;;
30707;SDS011;17458;48.958;8.284;2022-12-18T11:12:15;72.73;;;36.13;;
30707;SDS011;17458;48.958;8.284;2022-12-18T11:15:01;70.70;;;34.53;;
30707;SDS011;17458;48.958;8.284;2022-12-18T11:17:45;84.47;;;38.30;;
30707;SDS011;17458;48.958;8.284;2022-12-18T11:20:36;72.83;;;32.70;;
30707;SDS011;17458;48.958;8.284;2022-12-18T11:23:20;71.60;;;32.13;;
30707;SDS011;17458;48.958;8.284;2022-12-18T11:26:08;66.87;;;31.63;;
30707;SDS011;17458;48.958;8.284;2022-12-18T11:28:52;68.83;;;34.07;;
30707;SDS011;17458;48.958;8.284;2022-12-18T11:31:57;62.70;;;32.63;;
30707;SDS011;17458;48.958;8.284;2022-12-18T11:35:11;69.40;;;31.93;;
30707;SDS011;17458;48.958;8.284;2022-12-18T11:38:18;66.47;;;32.57;;
30707;SDS011;17458;48.958;8.284;2022-12-18T11:41:13;70.97;;;32.17;;
30707;SDS011;17458;48.958;8.284;2022-12-18T11:44:04;65.97;;;31.13;;
30707;SDS011;17458;48.958;8.284;2022-12-18T11:46:58;55.27;;;29.37;;
30707;SDS011;17458;48.958;8.284;2022-12-18T11:49:47;60.23;;;28.60;;
30707;SDS011;17458;48.958;8.284;2022-12-18T11:52:37;56.13;;;28.00;;
30707;SDS011;17458;48.958;8.284;2022-12-18T11:55:33;58.00;;;29.83;;
30707;SDS011;17458;48.958;8.284;2022-12-18T11:58:42;66.77;;;29.97;;
30707;SDS011;17458;48.958;8.284;2022-12-18T12:04:40;65.10;;;30.00;;
30707;SDS011;17458;48.958;8.284;2022-12-18T12:16:24;62.43;;;31.13;;
30707;SDS011;17458;48.958;8.284;2022-12-18T12:22:36;71.67;;;33.60;;
30707;SDS011;17458;48.958;8.284;2022-12-18T12:25:29;68.63;;;33.33;;
30707;SDS011;17458;48.958;8.284;2022-12-18T12:31:33;67.63;;;32.57;;
30707;SDS011;17458;48.958;8.284;2022-12-18T12:35:12;87.00;;;38.07;;
30707;SDS011;17458;48.958;8.284;2022-12-18T12:40:39;76.13;;;38.40;;
30707;SDS011;17458;48.958;8.284;2022-12-18T12:46:31;80.07;;;35.93;;
30707;SDS011;17458;48.958;8.284;2022-12-18T12:49:24;87.30;;;35.83;;
30707;SDS011;17458;48.958;8.284;2022-12-18T12:52:12;69.77;;;34.07;;
30707;SDS011;17458;48.958;8.284;2022-12-18T12:55:00;68.87;;;34.87;;
30707;SDS011;17458;48.958;8.284;2022-12-18T12:58:31;75.73;;;34.90;;
30707;SDS011;17458;48.958;8.284;2022-12-18T13:01:25;75.50;;;36.10;;
30707;SDS011;17458;48.958;8.284;2022-12-18T13:13:09;72.63;;;34.90;;
30707;SDS011;17458;48.958;8.284;2022-12-18T13:16:03;79.03;;;40.57;;
30707;SDS011;17458;48.958;8.284;2022-12-18T13:18:54;72.47;;;36.13;;
30707;SDS011;17458;48.958;8.284;2022-12-18T13:21:42;81.77;;;38.63;;
30707;SDS011;17458;48.958;8.284;2022-12-18T13:24:37;69.73;;;36.73;;
30707;SDS011;17458;48.958;8.284;2022-12-18T13:44:49;79.63;;;36.77;;
30707;SDS011;17458;48.958;8.284;2022-12-18T13:47:34;67.47;;;33.03;;
30707;SDS011;17458;48.958;8.284;2022-12-18T13:50:27;78.37;;;35.70;;
30707;SDS011;17458;48.958;8.284;2022-12-18T13:53:21;62.17;;;33.70;;
30707;SDS011;17458;48.958;8.284;2022-12-18T13:56:10;71.93;;;36.27;;
30707;SDS011;17458;48.958;8.284;2022-12-18T13:59:09;66.73;;;35.43;;
30707;SDS011;17458;48.958;8.284;2022-12-18T14:01:57;73.47;;;35.67;;
30707;SDS011;17458;48.958;8.284;2022-12-18T14:04:47;90.93;;;45.03;;
30707;SDS011;17458;48.958;8.284;2022-12-18T14:07:32;75.30;;;36.17;;
30707;SDS011;17458;48.958;8.284;2022-12-18T14:10:16;74.33;;;35.77;;
30707;SDS011;17458;48.958;8.284;2022-12-18T14:13:05;81.07;;;38.23;;
30707;SDS011;17458;48.958;8.284;2022-12-18T14:15:51;77.43;;;35.60;;
30707;SDS011;17458;48.958;8.284;2022-12-18T14:18:51;82.80;;;38.60;;
30707;SDS011;17458;48.958;8.284;2022-12-18T14:21:45;70.73;;;36.87;;
30707;SDS011;17458;48.958;8.284;2022-12-18T14:24:31;74.97;;;37.90;;
30707;SDS011;17458;48.958;8.284;2022-12-18T14:27:21;66.43;;;33.30;;
30707;SDS011;17458;48.958;8.284;2022-12-18T14:30:23;64.63;;;34.37;;
30707;SDS011;17458;48.958;8.284;2022-12-18T14:35:53;71.10;;;32.43;;
30707;SDS011;17458;48.958;8.284;2022-12-18T14:38:42;64.77;;;33.67;;
30707;SDS011;17458;48.958;8.284;2022-12-18T14:41:26;66.20;;;33.27;;
30707;SDS011;17458;48.958;8.284;2022-12-18T14:44:12;65.60;;;33.70;;
30707;SDS011;17458;48.958;8.284;2022-12-18T14:46:56;63.43;;;35.63;;
30707;SDS011;17458;48.958;8.284;2022-12-18T14:49:41;59.87;;;33.33;;
30707;SDS011;17458;48.958;8.284;2022-12-18T14:52:27;71.77;;;34.10;;
30707;SDS011;17458;48.958;8.284;2022-12-18T14:55:16;59.33;;;34.03;;
30707;SDS011;17458;48.958;8.284;2022-12-18T14:58:01;72.97;;;35.37;;
30707;SDS011;17458;48.958;8.284;2022-12-18T15:00:45;64.83;;;31.60;;
30707;SDS011;17458;48.958;8.284;2022-12-18T15:03:29;63.03;;;33.43;;
30707;SDS011;17458;48.958;8.284;2022-12-18T15:06:17;63.70;;;32.27;;
30707;SDS011;17458;48.958;8.284;2022-12-18T15:09:22;58.70;;;30.87;;
30707;SDS011;17458;48.958;8.284;2022-12-18T15:18:33;70.77;;;34.67;;
30707;SDS011;17458;48.958;8.284;2022-12-18T15:21:24;60.43;;;32.83;;
30707;SDS011;17458;48.958;8.284;2022-12-18T15:24:22;68.90;;;35.23;;
30707;SDS011;17458;48.958;8.284;2022-12-18T15:27:20;61.10;;;31.77;;
30707;SDS011;17458;48.958;8.284;2022-12-18T15:33:17;69.37;;;31.87;;
30707;SDS011;17458;48.958;8.284;2022-12-18T15:36:10;66.90;;;33.30;;
30707;SDS011;17458;48.958;8.284;2022-12-18T15:38:56;63.20;;;30.43;;
30707;SDS011;17458;48.958;8.284;2022-12-18T15:41:41;72.77;;;31.23;;
30707;SDS011;17458;48.958;8.284;2022-12-18T15:44:46;61.53;;;32.13;;
30707;SDS011;17458;48.958;8.284;2022-12-18T15:47:30;68.43;;;32.93;;
30707;SDS011;17458;48.958;8.284;2022-12-18T15:50:14;51.10;;;29.20;;
30707;SDS011;17458;48.958;8.284;2022-12-18T15:52:58;63.77;;;33.30;;
30707;SDS011;17458;48.958;8.284;2022-12-18T15:55:42;57.67;;;31.13;;
30707;SDS011;17458;48.958;8.284;2022-12-18T15:58:45;80.13;;;35.43;;
30707;SDS011;17458;48.958;8.284;2022-12-18T16:01:30;63.33;;;33.53;;
30707;SDS011;17458;48.958;8.284;2022-12-18T16:04:16;70.37;;;35.17;;
30707;SDS011;17458;48.958;8.284;2022-12-18T16:07:01;64.33;;;35.37;;
30707;SDS011;17458;48.958;8.284;2022-12-18T16:09:48;71.50;;;35.23;;
30707;SDS011;17458;48.958;8.284;2022-12-18T16:12:32;75.13;;;35.93;;
30707;SDS011;17458;48.958;8.284;2022-12-18T16:15:16;59.00;;;30.80;;
30707;SDS011;17458;48.958;8.284;2022-12-18T16:18:00;67.50;;;32.03;;
30707;SDS011;17458;48.958;8.284;2022-12-18T16:20:44;71.77;;;33.97;;
30707;SDS011;17458;48.958;8.284;2022-12-18T16:23:28;59.07;;;29.63;;
30707;SDS011;17458;48.958;8.284;2022-12-18T16:26:12;66.60;;;32.50;;
30707;SDS011;17458;48.958;8.284;2022-12-18T16:28:56;68.10;;;32.97;;
30707;SDS011;17458;48.958;8.284;2022-12-18T16:31:40;70.13;;;32.27;;
30707;SDS011;17458;48.958;8.284;2022-12-18T16:34:26;53.27;;;30.40;;
30707;SDS011;17458;48.958;8.284;2022-12-18T16:37:12;66.77;;;32.90;;
30707;SDS011;17458;48.958;8.284;2022-12-18T16:40:00;61.07;;;33.33;;
30707;SDS011;17458;48.958;8.284;2022-12-18T16:42:45;73.83;;;32.67;;
30707;SDS011;17458;48.958;8.284;2022-12-18T16:45:29;59.87;;;30.80;;
30707;SDS011;17458;48.958;8.284;2022-12-18T16:48:17;68.53;;;31.83;;
30707;SDS011;17458;48.958;8.284;2022-12-18T16:51:01;61.17;;;30.97;;
30707;SDS011;17458;48.958;8.284;2022-12-18T16:53:47;68.73;;;32.27;;
30707;SDS011;17458;48.958;8.284;2022-12-18T16:56:31;58.57;;;30.87;;
30707;SDS011;17458;48.958;8.284;2022-12-18T16:59:15;65.57;;;32.10;;
30707;SDS011;17458;48.958;8.284;2022-12-18T17:01:59;55.17;;;30.87;;
30707;SDS011;17458;48.958;8.284;2022-12-18T17:04:45;70.73;;;33.07;;
30707;SDS011;17458;48.958;8.284;2022-12-18T17:07:29;73.40;;;33.97;;
30707;SDS011;17458;48.958;8.284;2022-12-18T17:10:16;68.80;;;32.83;;
30707;SDS011;17458;48.958;8.284;2022-12-18T17:13:00;64.90;;;31.53;;
30707;SDS011;17458;48.958;8.284;2022-12-18T17:16:06;75.33;;;33.87;;
30707;SDS011;17458;48.958;8.284;2022-12-18T17:18:51;70.80;;;33.53;;
30707;SDS011;17458;48.958;8.284;2022-12-18T17:21:36;72.17;;;37.03;;
30707;SDS011;17458;48.958;8.284;2022-12-18T17:24:20;66.07;;;33.47;;
30707;SDS011;17458;48.958;8.284;2022-12-18T17:27:04;69.27;;;33.17;;
30707;SDS011;17458;48.958;8.284;2022-12-18T17:29:48;61.00;;;31.87;;
30707;SDS011;17458;48.958;8.284;2022-12-18T17:32:32;68.60;;;33.67;;
30707;SDS011;17458;48.958;8.284;2022-12-18T17:35:16;63.80;;;33.77;;
30707;SDS011;17458;48.958;8.284;2022-12-18T17:38:00;67.10;;;34.50;;
30707;SDS011;17458;48.958;8.284;2022-12-18T17:40:44;59.40;;;30.57;;
30707;SDS011;17458;48.958;8.284;2022-12-18T17:43:28;57.03;;;30.57;;
30707;SDS011;17458;48.958;8.284;2022-12-18T17:46:13;64.90;;;30.60;;
30707;SDS011;17458;48.958;8.284;2022-12-18T17:48:58;61.63;;;31.13;;
30707;SDS011;17458;48.958;8.284;2022-12-18T17:51:43;63.00;;;31.93;;
30707;SDS011;17458;48.958;8.284;2022-12-18T17:54:28;53.97;;;29.63;;
30707;SDS011;17458;48.958;8.284;2022-12-18T17:57:11;59.07;;;28.60;;
30707;SDS011;17458;48.958;8.284;2022-12-18T17:59:55;55.13;;;29.97;;
30707;SDS011;17458;48.958;8.284;2022-12-18T18:02:39;53.20;;;27.90;;
30707;SDS011;17458;48.958;8.284;2022-12-18T18:05:23;62.87;;;30.37;;
30707;SDS011;17458;48.958;8.284;2022-12-18T18:08:10;63.13;;;30.83;;
30707;SDS011;17458;48.958;8.284;2022-12-18T18:10:57;68.47;;;32.70;;
30707;SDS011;17458;48.958;8.284;2022-12-18T18:14:09;69.60;;;35.13;;